Oslo, Norvegia

08:48 AM CEST on septembrie 03, 2015 (GMT +0200)
Nedre Sørli / Harestua | | Change Station
CLOSE
Current Station
Staţie meteo personală
Location: Harestua, OPPLAND
Elevation: 1066 ft
Nearby Weather Stations

Elev 1066 ft 60.19 °N, 10.68 °E | Updated 3 minutes ago

Overcast
Cer acoperit
52.4 °F
Feels Like 52.4 °F
N
2.0
Vânt variabil Vânt from est
Gusts 2.0 mph

astăzi
High -- | Low -- °F
--% Chance of Precip.
Ieri
High -- | Low -- °F
Precip. -- inch
6:14 AM 8:15 PM
Lună în descreştere, 73% visible
Presiunea 29.83 inch
Vizibilitatea 6.2 mile
Nori Cer acoperit 400 ft
Punctul de rouă 50 °F
Umiditatea 93%
Precipitaţii 0.37 inch
Adâncimea zăpezii Not available.
UV 0.0 out of 12
Pollen Not available.
Calitatea aerului Not available.
Flu Activity Not available.
METAR ENGM 030620Z 04004KT 9999 OVC004 11/10 Q1010 TEMPO SHRA
Presiunea 29.83 inch
Vizibilitatea 6.2 mile
Nori Cer acoperit 400 ft
Punctul de rouă 50 °F
Umiditatea 93%
Precipitaţii 0.37 inch
Adâncimea zăpezii Not available.
UV 0.0 out of 12
Pollen Not available.
Calitatea aerului Not available.
Flu Activity Not available.
METAR ENGM 030620Z 04004KT 9999 OVC004 11/10 Q1010 TEMPO SHRA

10-Day Weather Forecast

×

Almanac

Astronomie

Sep. 03, 2015 Răsărit Apus
Timpul Actual
Crepusculul Civil
Crepusculul nautic
Răsărit Astronomic
Luna
Durata zilei lumină
Lungimea zilei
Tomorrow will be .
, % of the Moon is Illuminated

Extremele de azi

Country Highs Country Lows

Community

WunderPhotos

Upload Photos

1,851,913 photos uploaded!

WunderBlogs® & News

Nearby

Calitatea aerului

  Calitatea aerului Index de calitate a aerului Poluat
Not available.

Adâncimea zapezii

Station Depth Elevation

Earthquake Activity

Oraş Distance Mag. Time & Date
Minimum magnitude displayed is 2.5.

Coastal Water Temperatures

Locul Temperatura

Stations

Nearby Weather Stations

Locaţia staţiei Temp Vânt rece Punctul de rouă Umiditatea Vânt Precip. Elev Actualizare Type